Time,TemperatureF,DewpointF,PressureIn,WindDirection,WindDirectionDegrees,WindSpeedMPH,WindSpeedGustMPH,Humidity,HourlyPrecipIn,Conditions,Clouds,dailyrainin,SolarRadiationWatts/m^2,SoftwareType,DateUTC
2013-12-07 00:11:00,-10.0,-14.0,-100.00,South,184,6.0,9.0,81,0.00,,,0.00,0.000000,,2013-12-07 07:11:00,
2013-12-07 00:22:00,-10.0,-14.0,-100.00,South,184,6.0,9.0,81,0.00,,,0.00,0.000000,,2013-12-07 07:22:00,
2013-12-07 00:32:00,-10.0,-14.0,-100.00,South,184,6.0,9.0,81,0.00,,,0.00,0.000000,,2013-12-07 07:32:00,
2013-12-07 00:40:00,-10.0,-14.0,-100.00,SSW,199,7.0,11.0,83,0.00,,,0.00,0.000000,,2013-12-07 07:40:00,
2013-12-07 01:12:00,-10.0,-14.0,-100.00,SSW,199,7.0,11.0,83,0.00,,,0.00,0.000000,,2013-12-07 08:12:00,
2013-12-07 01:21:00,-10.0,-14.0,-100.00,SSW,199,7.0,11.0,83,0.00,,,0.00,0.000000,,2013-12-07 08:21:00,
2013-12-07 01:32:00,-10.0,-14.0,-100.00,SSW,199,7.0,11.0,83,0.00,,,0.00,0.000000,,2013-12-07 08:32:00,
2013-12-07 01:40:00,-10.0,-15.0,-100.00,WSW,238,2.0,12.0,79,0.00,,,0.00,0.000000,,2013-12-07 08:40:00,
2013-12-07 02:12:00,-10.0,-15.0,-100.00,WSW,238,2.0,12.0,79,0.00,,,0.00,0.000000,,2013-12-07 09:12:00,
2013-12-07 02:22:00,-10.0,-15.0,-100.00,WSW,238,2.0,12.0,79,0.00,,,0.00,0.000000,,2013-12-07 09:22:00,
2013-12-07 02:33:00,-10.0,-15.0,-100.00,WSW,238,2.0,12.0,79,0.00,,,0.00,0.000000,,2013-12-07 09:33:00,
2013-12-07 02:40:00,-10.0,-13.0,-100.00,SW,226,5.0,8.0,84,0.00,,,0.00,0.000000,,2013-12-07 09:40:00,
2013-12-07 03:13:00,-10.0,-13.0,-100.00,SW,226,5.0,8.0,84,0.00,,,0.00,0.000000,,2013-12-07 10:13:00,
2013-12-07 03:23:00,-10.0,-13.0,-100.00,SW,226,5.0,8.0,84,0.00,,,0.00,0.000000,,2013-12-07 10:23:00,
2013-12-07 03:33:00,-10.0,-13.0,-100.00,SW,226,5.0,8.0,84,0.00,,,0.00,0.000000,,2013-12-07 10:33:00,
2013-12-07 03:40:00,-11.0,-15.0,-100.00,SSW,203,5.0,8.0,81,0.00,,,0.00,0.000000,,2013-12-07 10:40:00,
2013-12-07 04:12:00,-11.0,-15.0,-100.00,SSW,203,5.0,8.0,81,0.00,,,0.00,0.000000,,2013-12-07 11:12:00,
2013-12-07 04:22:00,-11.0,-15.0,-100.00,SSW,203,5.0,8.0,81,0.00,,,0.00,0.000000,,2013-12-07 11:22:00,
2013-12-07 04:32:00,-11.0,-15.0,-100.00,SSW,203,5.0,8.0,81,0.00,,,0.00,0.000000,,2013-12-07 11:32:00,
2013-12-07 04:40:00,-12.0,-16.0,-100.00,NW,311,0.0,7.0,80,0.00,,,0.00,0.000000,,2013-12-07 11:40:00,
2013-12-07 05:12:00,-12.0,-16.0,-100.00,NW,311,0.0,7.0,80,0.00,,,0.00,0.000000,,2013-12-07 12:12:00,
2013-12-07 05:22:00,-12.0,-16.0,-100.00,NW,311,0.0,7.0,80,0.00,,,0.00,0.000000,,2013-12-07 12:22:00,
2013-12-07 05:32:00,-12.0,-16.0,-100.00,NW,311,0.0,7.0,80,0.00,,,0.00,0.000000,,2013-12-07 12:32:00,
2013-12-07 05:40:00,-12.0,-15.0,-100.00,SW,230,0.0,3.0,85,0.00,,,0.00,0.000000,,2013-12-07 12:40:00,
2013-12-07 06:11:00,-12.0,-15.0,-100.00,SW,230,0.0,3.0,85,0.00,,,0.00,0.000000,,2013-12-07 13:11:00,
2013-12-07 06:22:00,-12.0,-15.0,-100.00,SW,230,0.0,3.0,85,0.00,,,0.00,0.000000,,2013-12-07 13:22:00,
2013-12-07 06:32:00,-12.0,-15.0,-100.00,SW,230,0.0,3.0,85,0.00,,,0.00,0.000000,,2013-12-07 13:32:00,
2013-12-07 06:40:00,-8.0,-12.0,-100.00,SE,135,2.0,4.0,84,0.00,,,0.00,0.000000,,2013-12-07 13:40:00,
2013-12-07 07:12:00,-8.0,-12.0,-100.00,SE,135,2.0,4.0,84,0.00,,,0.00,0.000000,,2013-12-07 14:12:00,
2013-12-07 07:21:00,-8.0,-12.0,-100.00,SE,135,2.0,4.0,84,0.00,,,0.00,0.000000,,2013-12-07 14:21:00,
2013-12-07 07:32:00,-8.0,-12.0,-100.00,SE,135,2.0,4.0,84,0.00,,,0.00,0.000000,,2013-12-07 14:32:00,
2013-12-07 07:40:00,-7.0,-11.0,-100.00,SSW,193,0.0,3.0,82,0.00,,,0.00,0.000000,,2013-12-07 14:40:00,
2013-12-07 08:11:00,-7.0,-11.0,-100.00,SSW,193,0.0,3.0,82,0.00,,,0.00,0.000000,,2013-12-07 15:11:00,
2013-12-07 08:21:00,-7.0,-11.0,-100.00,SSW,193,0.0,3.0,82,0.00,,,0.00,0.000000,,2013-12-07 15:21:00,
2013-12-07 08:33:00,-7.0,-11.0,-100.00,SSW,193,0.0,3.0,82,0.00,,,0.00,0.000000,,2013-12-07 15:33:00,
2013-12-07 14:11:00,4.0,-4.0,-100.00,SSW,200,0.0,4.0,70,-99.99,,,0.00,49.000000,,2013-12-07 21:11:00,
2013-12-07 14:22:00,4.0,-4.0,-100.00,SSW,200,0.0,4.0,70,-99.99,,,0.00,49.000000,,2013-12-07 21:22:00,
2013-12-07 14:33:00,4.0,-4.0,-100.00,SSW,200,0.0,4.0,70,-99.99,,,0.00,49.000000,,2013-12-07 21:33:00,
2013-12-07 15:13:00,6.0,-2.0,-100.00,ENE,70,0.0,2.0,68,-99.99,,,0.00,35.000000,,2013-12-07 22:13:00,
2013-12-07 15:23:00,6.0,-2.0,-100.00,ENE,70,0.0,2.0,68,-99.99,,,0.00,35.000000,,2013-12-07 22:23:00,
2013-12-07 15:33:00,6.0,-2.0,-100.00,ENE,70,0.0,2.0,68,-99.99,,,0.00,35.000000,,2013-12-07 22:33:00,
2013-12-07 15:40:00,1.0,-5.0,-100.00,East,94,0.0,2.0,74,-99.99,,,0.00,23.000000,,2013-12-07 22:40:00,
2013-12-07 16:12:00,1.0,-5.0,-100.00,East,94,0.0,2.0,74,-99.99,,,0.00,23.000000,,2013-12-07 23:12:00,
2013-12-07 16:21:00,1.0,-5.0,-100.00,East,94,0.0,2.0,74,-99.99,,,0.00,23.000000,,2013-12-07 23:21:00,
2013-12-07 16:33:00,1.0,-5.0,-100.00,East,94,0.0,2.0,74,-99.99,,,0.00,23.000000,,2013-12-07 23:33:00,
2013-12-07 16:40:00,-1.0,-5.0,-100.00,SSE,167,1.0,3.0,81,0.00,,,0.00,5.000000,,2013-12-07 23:40:00,
2013-12-07 17:11:00,-1.0,-5.0,-100.00,SSE,167,1.0,3.0,81,0.00,,,0.00,5.000000,,2013-12-08 00:11:00,
2013-12-07 17:22:00,-1.0,-5.0,-100.00,SSE,167,1.0,3.0,81,0.00,,,0.00,5.000000,,2013-12-08 00:22:00,
2013-12-07 17:32:00,-1.0,-5.0,-100.00,SSE,167,1.0,3.0,81,0.00,,,0.00,5.000000,,2013-12-08 00:32:00,
2013-12-07 17:40:00,-2.0,-5.0,-100.00,SSE,165,2.0,5.0,85,0.00,,,0.00,0.000000,,2013-12-08 00:40:00,
2013-12-07 18:12:00,-2.0,-5.0,-100.00,SSE,165,2.0,5.0,85,0.00,,,0.00,0.000000,,2013-12-08 01:12:00,
2013-12-07 18:22:00,-2.0,-5.0,-100.00,SSE,165,2.0,5.0,85,0.00,,,0.00,0.000000,,2013-12-08 01:22:00,
2013-12-07 18:32:00,-2.0,-5.0,-100.00,SSE,165,2.0,5.0,85,0.00,,,0.00,0.000000,,2013-12-08 01:32:00,
2013-12-07 18:40:00,0.0,-4.0,-100.00,SSE,150,2.0,4.0,84,0.00,,,0.00,0.000000,,2013-12-08 01:40:00,
2013-12-07 19:12:00,0.0,-4.0,-100.00,SSE,150,2.0,4.0,84,0.00,,,0.00,0.000000,,2013-12-08 02:12:00,
2013-12-07 19:21:00,0.0,-4.0,-100.00,SSE,150,2.0,4.0,84,0.00,,,0.00,0.000000,,2013-12-08 02:21:00,
2013-12-07 19:32:00,0.0,-4.0,-100.00,SSE,150,2.0,4.0,84,0.00,,,0.00,0.000000,,2013-12-08 02:32:00,
2013-12-07 20:11:00,0.0,-3.0,-100.00,SSW,197,1.0,4.0,85,0.00,,,-99.99,0.000000,,2013-12-08 03:11:00,
2013-12-07 20:22:00,0.0,-3.0,-100.00,SSW,197,1.0,4.0,85,0.00,,,-99.99,0.000000,,2013-12-08 03:22:00,
2013-12-07 20:33:00,0.0,-3.0,-100.00,SSW,197,1.0,4.0,85,0.00,,,-99.99,0.000000,,2013-12-08 03:33:00,
2013-12-07 21:02:00,-999.0,-99.9,-100.00,WSW,253,0.0,4.0,-999,-99.99,,,0.00,0.000000,,2013-12-08 04:02:00,
2013-12-07 21:13:00,-2.0,-5.0,-100.00,WSW,253,0.0,4.0,88,-99.99,,,0.00,0.000000,,2013-12-08 04:13:00,
2013-12-07 21:23:00,-2.0,-5.0,-100.00,WSW,253,0.0,4.0,88,-99.99,,,0.00,0.000000,,2013-12-08 04:23:00,
2013-12-07 21:33:00,-2.0,-5.0,-100.00,WSW,253,0.0,4.0,88,-99.99,,,0.00,0.000000,,2013-12-08 04:33:00,
2013-12-07 21:40:00,-4.0,-7.0,-100.00,SW,221,0.0,4.0,88,0.00,,,0.00,0.000000,,2013-12-08 04:40:00,
2013-12-07 22:12:00,-4.0,-7.0,-100.00,SW,221,0.0,4.0,88,0.00,,,0.00,0.000000,,2013-12-08 05:12:00,
2013-12-07 22:22:00,-4.0,-7.0,-100.00,SW,221,0.0,4.0,88,0.00,,,0.00,0.000000,,2013-12-08 05:22:00,
2013-12-07 22:33:00,-4.0,-7.0,-100.00,SW,221,0.0,4.0,88,0.00,,,0.00,0.000000,,2013-12-08 05:33:00,
2013-12-07 22:40:00,-3.0,-5.0,-100.00,ESE,115,1.0,3.0,89,0.00,,,0.00,0.000000,,2013-12-08 05:40:00,
2013-12-07 23:12:00,-3.0,-5.0,-100.00,ESE,115,1.0,3.0,89,0.00,,,0.00,0.000000,,2013-12-08 06:12:00,
2013-12-07 23:23:00,-3.0,-5.0,-100.00,ESE,115,1.0,3.0,89,0.00,,,0.00,0.000000,,2013-12-08 06:23:00,
2013-12-07 23:32:00,-3.0,-5.0,-100.00,ESE,115,1.0,3.0,89,0.00,,,0.00,0.000000,,2013-12-08 06:32:00,